Create Tblcommutelog Verified Points Advance Search
| # | Trip ID | Id Commuter | Trip Date | Trip Num | Current Lat | Current Lng | Delta Distance | Current Time | Activity | Activity Confidence | Current Speed | |
|---|---|---|---|---|---|---|---|---|---|---|---|---|
| 73841 | 250722_129747_16491788_0454 | 129747 | (not set) | (not set) | 39.1505724 | -76.6975162 | 28.9594 | 2025-07-22 05:38:58 | in_vehicle | 100 | 14.233730006169 | |
| 73842 | 250722_129747_16491788_0454 | 129747 | (not set) | (not set) | 39.1474199 | -76.6975593 | 29.1768 | 2025-07-22 05:39:09 | in_vehicle | 100 | 14.18455568768 | |
| 73843 | 250722_129747_16491788_0454 | 129747 | (not set) | (not set) | 39.1474199 | -76.6975593 | 29.1768 | 2025-07-22 05:39:09 | in_vehicle | 100 | 14.18455568768 | |
| 73844 | 250722_129747_16491788_0454 | 129747 | (not set) | (not set) | 39.1408202 | -76.6975447 | 29.6322 | 2025-07-22 05:39:33 | in_vehicle | 100 | 14.287374717248 | |
| 73845 | 250722_129747_16491788_0454 | 129747 | (not set) | (not set) | 39.1442497 | -76.697597 | 29.3956 | 2025-07-22 05:39:20 | in_vehicle | 100 | 14.2203188284 | |
| 73846 | 250722_129747_16491788_0454 | 129747 | (not set) | (not set) | 39.1408202 | -76.6975447 | 29.6322 | 2025-07-22 05:39:32 | in_vehicle | 100 | 14.287374717248 | |
| 73847 | 250722_129747_16491788_0454 | 129747 | (not set) | (not set) | 39.1442497 | -76.697597 | 29.3956 | 2025-07-22 05:39:20 | in_vehicle | 100 | 14.2203188284 | |
| 73848 | 250722_763853_16464864_0655 | 763853 | (not set) | (not set) | 38.854332933333 | -77.4892315 | 3.0042 | 2025-07-22 07:02:09 | in_vehicle | 100 | 7.9349468470321 | |
| 73849 | 250722_129747_16491788_0454 | 129747 | (not set) | (not set) | 39.1376638 | -76.6976175 | 29.8499 | 2025-07-22 05:39:43 | in_vehicle | 100 | 14.363371391276 | |
| 73850 | 250722_129747_16491788_0454 | 129747 | (not set) | (not set) | 39.1344551 | -76.6975924 | 30.0713 | 2025-07-22 05:39:54 | in_vehicle | 100 | 14.783588294724 | |
| 73851 | 250722_129747_16491788_0454 | 129747 | (not set) | (not set) | 39.1344551 | -76.6975924 | 30.0713 | 2025-07-22 05:39:54 | in_vehicle | 100 | 14.783588294724 | |
| 73852 | 250722_129747_16491788_0454 | 129747 | (not set) | (not set) | 39.1308174 | -76.6968244 | 30.3256 | 2025-07-22 05:40:06 | in_vehicle | 100 | 15.512262286874 | |
| 73853 | 250722_129747_16491788_0454 | 129747 | (not set) | (not set) | 39.1308174 | -76.6968244 | 30.3256 | 2025-07-22 05:40:06 | in_vehicle | 100 | 15.512262286874 | |
| 73854 | 250722_129747_16491788_0454 | 129747 | (not set) | (not set) | 39.1376638 | -76.6976175 | 29.8499 | 2025-07-22 05:39:43 | in_vehicle | 100 | 14.363371391276 | |
| 73855 | 250722_783292_16499526_0632 | 783292 | (not set) | (not set) | 38.894186795654 | -77.029102567134 | 11.5707 | 2025-07-22 07:02:13 | in_vehicle | 100 | -0.44703925898772 | |
| 73856 | 250722_783292_16499526_0632 | 783292 | (not set) | (not set) | 38.900988083796 | -77.032385880448 | 11.5707 | 2025-07-22 07:02:13 | in_vehicle | 100 | -0.44703925898772 | |
| 73857 | 250722_783292_16499526_0632 | 783292 | (not set) | (not set) | 38.894186795654 | -77.029102567134 | 11.5707 | 2025-07-22 07:02:13 | in_vehicle | 100 | -0.44703925898772 | |
| 73858 | 250722_783292_16499526_0632 | 783292 | (not set) | (not set) | 38.900988083796 | -77.032385880448 | 11.5707 | 2025-07-22 07:02:13 | in_vehicle | 100 | -0.44703925898772 | |
| 73859 | 250722_129747_16491788_0454 | 129747 | (not set) | (not set) | 39.1232301 | -76.6959595 | 30.8524 | 2025-07-22 05:40:29 | in_vehicle | 100 | 17.394297567212 | |
| 73860 | 250722_129747_16491788_0454 | 129747 | (not set) | (not set) | 39.126971 | -76.6960263 | 30.5944 | 2025-07-22 05:40:18 | in_vehicle | 100 | 16.419751982619 |